Time;durP1;ratioP1;P1;durP2;ratioP2;P2;SDS_P1;SDS_P2;PMS_P1;PMS_P2;Temp;Humidity;BMP_temperature;BMP_pressure;BME280_temperature;BME280_humidity;BME280_pressure;Samples;Min_cycle;Max_cycle;Signal;HPM_P1;HPM_P2
2021/12/17 00:00:29;;;;;;;9.58;5.75;;;;;;;;;;371261;141;859027;-55
2021/12/17 00:04:03;;;;;;;9.66;5.64;;;;;;;;;;346349;152;857807;-56
2021/12/17 00:05:06;;;;;;;13.69;4.99;;;;;;;;;;345698;153;859458;-56
2021/12/17 00:06:15;;;;;;;10.64;5.12;;;;;;;;;;371975;144;858837;-56
2021/12/17 00:07:11;;;;;;;7.78;4.67;;;;;;;;;;367865;144;860517;-57
2021/12/17 00:08:13;;;;;;;10.43;4.82;;;;;;;;;;370494;141;859483;-57
2021/12/17 00:09:14;;;;;;;6.86;4.02;;;;;;;;;;372256;144;864868;-57
2021/12/17 00:10:17;;;;;;;7.45;4.15;;;;;;;;;;369772;142;860059;-55
2021/12/17 00:11:19;;;;;;;8.84;4.05;;;;;;;;;;370753;143;857198;-56
2021/12/17 00:12:21;;;;;;;5.36;3.66;;;;;;;;;;368881;141;858947;-56
2021/12/17 00:13:22;;;;;;;8.54;4.10;;;;;;;;;;370316;144;864852;-58
2021/12/17 00:14:29;;;;;;;8.69;3.89;;;;;;;;;;372262;142;859751;-56
2021/12/17 00:15:30;;;;;;;9.62;4.08;;;;;;;;;;371720;142;859443;-55
2021/12/17 00:16:37;;;;;;;6.10;3.94;;;;;;;;;;371852;142;857934;-56
2021/12/17 00:17:39;;;;;;;7.25;3.90;;;;;;;;;;371209;142;865821;-56
2021/12/17 00:18:54;;;;;;;8.24;4.14;;;;;;;;;;371815;142;858336;-57
2021/12/17 00:20:09;;;;;;;7.47;3.75;;;;;;;;;;370547;143;866556;-56
2021/12/17 00:46:30;;;;;;;12.76;4.91;;;;;;;;;;370857;143;857771;-57
2021/12/17 00:49:14;;;;;;;7.06;4.70;;;;;;;;;;370946;142;858172;-56
2021/12/17 00:50:46;;;;;;;9.41;5.09;;;;;;;;;;372386;143;858104;-56
2021/12/17 00:52:45;;;;;;;8.23;4.14;;;;;;;;;;369594;142;857165;-55
2021/12/17 00:53:47;;;;;;;11.14;5.42;;;;;;;;;;369736;143;858983;-55
2021/12/17 00:54:48;;;;;;;6.29;3.36;;;;;;;;;;371405;143;864940;-56
2021/12/17 00:55:50;;;;;;;6.49;3.86;;;;;;;;;;371550;142;859740;-55
2021/12/17 00:56:52;;;;;;;9.31;4.37;;;;;;;;;;371347;142;858894;-55
2021/12/17 00:57:54;;;;;;;7.39;3.72;;;;;;;;;;368235;143;864692;-55
2021/12/17 00:58:56;;;;;;;6.39;3.59;;;;;;;;;;370149;143;865447;-55
2021/12/17 00:59:57;;;;;;;9.74;3.49;;;;;;;;;;370453;142;860020;-56
2021/12/17 01:00:59;;;;;;;6.32;3.99;;;;;;;;;;370928;143;864739;-56
2021/12/17 01:02:02;;;;;;;6.83;3.83;;;;;;;;;;371691;142;864814;-57
2021/12/17 01:03:04;;;;;;;13.43;8.18;;;;;;;;;;369431;142;857686;-55
2021/12/17 01:04:06;;;;;;;22.89;16.59;;;;;;;;;;370295;143;858133;-56
2021/12/17 01:05:10;;;;;;;14.91;9.95;;;;;;;;;;371484;142;858706;-56
2021/12/17 01:06:12;;;;;;;14.32;8.92;;;;;;;;;;369299;144;864926;-55
2021/12/17 01:07:13;;;;;;;7.98;4.89;;;;;;;;;;371646;141;865660;-58
2021/12/17 01:08:15;;;;;;;10.13;6.31;;;;;;;;;;370056;143;864807;-56
2021/12/17 01:09:17;;;;;;;13.08;7.95;;;;;;;;;;369690;141;857715;-56
2021/12/17 01:10:29;;;;;;;18.61;10.43;;;;;;;;;;372285;143;866680;-56
2021/12/17 01:11:30;;;;;;;13.52;7.73;;;;;;;;;;370328;143;859284;-56
2021/12/17 01:12:32;;;;;;;13.76;8.55;;;;;;;;;;370077;144;859010;-57
2021/12/17 01:13:34;;;;;;;8.69;5.33;;;;;;;;;;370259;142;865121;-55
2021/12/17 01:14:35;;;;;;;9.29;6.32;;;;;;;;;;371403;144;859071;-56
2021/12/17 01:15:37;;;;;;;6.76;4.51;;;;;;;;;;371962;144;865006;-56
2021/12/17 01:16:38;;;;;;;5.77;3.43;;;;;;;;;;374542;141;858568;-55
2021/12/17 01:17:43;;;;;;;5.71;3.89;;;;;;;;;;370975;141;866582;-55
2021/12/17 01:19:01;;;;;;;7.84;3.87;;;;;;;;;;372515;143;856210;-56
2021/12/17 01:25:10;;;;;;;9.73;4.77;;;;;;;;;;364075;145;865229;-56
2021/12/17 01:35:29;;;;;;;3.10;1.99;;;;;;;;;;370254;142;858026;-55
2021/12/17 01:36:31;;;;;;;3.81;2.04;;;;;;;;;;369629;144;858730;-57
2021/12/17 01:38:29;;;;;;;4.21;2.09;;;;;;;;;;371303;144;857105;-57
2021/12/17 01:41:13;;;;;;;3.31;1.83;;;;;;;;;;369606;142;863748;-57
2021/12/17 01:42:06;;;;;;;5.12;2.26;;;;;;;;;;369799;142;864683;-55
2021/12/17 01:43:09;;;;;;;5.29;2.13;;;;;;;;;;371907;143;858553;-55
2021/12/17 01:44:11;;;;;;;3.08;1.76;;;;;;;;;;369501;142;857187;-56
2021/12/17 01:45:12;;;;;;;4.99;2.13;;;;;;;;;;371423;142;857257;-55
2021/12/17 01:46:16;;;;;;;3.68;2.19;;;;;;;;;;370909;142;857193;-56
2021/12/17 01:47:18;;;;;;;3.87;2.23;;;;;;;;;;370563;142;857296;-55
2021/12/17 01:48:26;;;;;;;4.58;2.36;;;;;;;;;;371158;142;857276;-55
2021/12/17 01:56:16;;;;;;;3.76;2.01;;;;;;;;;;368950;142;857312;-55
2021/12/17 01:59:45;;;;;;;5.53;2.00;;;;;;;;;;369014;141;856203;-55
2021/12/17 02:00:48;;;;;;;3.29;2.01;;;;;;;;;;372401;144;857531;-55
2021/12/17 02:01:51;;;;;;;3.31;1.92;;;;;;;;;;371537;144;865804;-55
2021/12/17 02:02:53;;;;;;;2.77;1.67;;;;;;;;;;371063;143;863802;-55
2021/12/17 02:03:55;;;;;;;4.60;1.83;;;;;;;;;;372325;141;865194;-55
2021/12/17 02:04:57;;;;;;;2.91;1.63;;;;;;;;;;370504;144;856972;-55
2021/12/17 02:06:00;;;;;;;3.03;1.88;;;;;;;;;;372191;142;857334;-55
2021/12/17 02:07:02;;;;;;;2.79;2.08;;;;;;;;;;370319;142;856350;-56
2021/12/17 02:08:04;;;;;;;4.55;2.26;;;;;;;;;;372416;144;857277;-55
2021/12/17 02:09:16;;;;;;;5.03;2.24;;;;;;;;;;371779;144;859023;-56
2021/12/17 02:12:09;;;;;;;4.06;1.99;;;;;;;;;;358913;147;857812;-56
2021/12/17 02:13:08;;;;;;;3.11;2.12;;;;;;;;;;356689;147;858224;-56
2021/12/17 02:28:55;;;;;;;5.71;2.97;;;;;;;3.89;80.04;99859.25;368508;144;858054;-56
2021/12/17 02:29:52;;;;;;;6.11;1.89;;;;;;;3.86;79.69;99859.20;363388;144;859714;-56
2021/12/17 02:31:01;;;;;;;3.63;1.58;;;;;;;3.61;80.28;99858.75;363798;144;859451;-55
2021/12/17 02:31:58;;;;;;;4.42;2.12;;;;;;;3.47;81.29;99855.06;364023;144;857078;-55
2021/12/17 02:32:58;;;;;;;3.02;1.62;;;;;;;3.71;81.65;99861.48;367370;144;856696;-55
2021/12/17 02:34:12;;;;;;;7.23;2.87;;;;;;;3.83;81.70;99855.73;368488;144;857210;-55
2021/12/17 02:36:17;;;;;;;6.18;3.08;;;;;;;3.94;81.09;99844.83;367715;144;860077;-55
2021/12/17 02:37:21;;;;;;;3.76;1.62;;;;;;;4.02;80.38;99852.66;366857;144;858004;-55
2021/12/17 02:38:21;;;;;;;4.17;2.02;;;;;;;3.70;81.22;99847.80;366701;144;864679;-55
2021/12/17 02:45:42;;;;;;;4.66;2.27;;;;;;;4.49;77.96;99861.09;361126;146;857342;-57
2021/12/17 02:46:44;;;;;;;4.90;2.11;;;;;;;4.61;78.20;99860.43;361288;147;864886;-57
2021/12/17 02:47:46;;;;;;;8.79;3.42;;;;;;;4.72;77.74;99852.88;363628;147;858098;-56
2021/12/17 02:48:47;;;;;;;3.21;1.70;;;;;;;4.79;77.35;99855.56;363400;146;864882;-55
2021/12/17 02:49:49;;;;;;;4.21;1.96;;;;;;;;;;357332;150;866540;-56
2021/12/17 02:50:52;;;;;;;3.71;2.12;;;;;;;;;;357927;150;864762;-55
2021/12/17 02:51:53;;;;;;;3.53;1.95;;;;;;;;;;363365;147;864870;-55
2021/12/17 02:52:55;;;;;;;6.16;1.75;;;;;;;;;;361642;146;857265;-56
2021/12/17 02:53:57;;;;;;;5.71;1.87;;;;;;;;;;361781;147;856674;-55
2021/12/17 02:54:58;;;;;;;9.22;3.51;;;;;;;;;;355632;150;856979;-55
2021/12/17 02:56:04;;;;;;;6.92;3.21;;;;;;;;;;356823;149;859383;-56
2021/12/17 02:57:07;;;;;;;5.79;3.17;;;;;;;;;;359564;147;858032;-56
2021/12/17 02:58:08;;;;;;;5.45;3.20;;;;;;;;;;362838;147;857648;-56
2021/12/17 02:59:13;;;;;;;4.26;1.86;;;;;;;;;;361885;147;857171;-56
2021/12/17 03:00:14;;;;;;;3.34;2.12;;;;;;;;;;362379;147;865264;-55
2021/12/17 03:01:16;;;;;;;7.93;2.58;;;;;;;;;;361138;147;857085;-55
2021/12/17 03:02:17;;;;;;;4.76;2.22;;;;;;;;;;362735;147;858860;-55
2021/12/17 03:03:20;;;;;;;6.75;2.89;;;;;;;;;;352544;150;865699;-55
2021/12/17 03:04:22;;;;;;;7.66;4.03;;;;;;;;;;353804;151;866119;-55
2021/12/17 03:05:23;;;;;;;8.68;3.25;;;;;;;;;;361840;147;857300;-55
2021/12/17 03:06:26;;;;;;;4.55;2.53;;;;;;;;;;361325;146;864762;-55
2021/12/17 03:07:28;;;;;;;6.73;2.91;;;;;;;;;;363055;147;865785;-55
2021/12/17 03:08:30;;;;;;;6.85;3.19;;;;;;;;;;353911;150;859512;-56
2021/12/17 03:10:39;;;;;;;6.71;2.36;;;;;;;;;;362068;147;858274;-55
2021/12/17 03:11:40;;;;;;;9.02;2.70;;;;;;;;;;361211;147;859483;-55
2021/12/17 03:12:48;;;;;;;7.92;2.93;;;;;;;;;;362036;147;866336;-55
2021/12/17 03:13:50;;;;;;;8.16;3.51;;;;;;;;;;363411;146;864758;-57
2021/12/17 03:15:04;;;;;;;7.79;3.71;;;;;;;;;;361249;147;857744;-55
2021/12/17 03:16:09;;;;;;;5.20;2.59;;;;;;;;;;361380;147;865406;-55
2021/12/17 03:17:09;;;;;;;7.28;3.24;;;;;;;;;;358579;147;857163;-55
2021/12/17 03:23:26;;;;;;;9.98;3.82;;;;;;;;;;362653;147;866117;-55
2021/12/17 03:24:29;;;;;;;14.22;5.64;;;;;;;;;;361525;146;859186;-55
2021/12/17 03:25:31;;;;;;;6.84;2.33;;;;;;;;;;360037;146;857791;-55
2021/12/17 03:26:32;;;;;;;5.03;2.21;;;;;;;;;;354671;147;858281;-56
2021/12/17 03:27:34;;;;;;;11.64;4.37;;;;;;;;;;356265;147;857835;-55
2021/12/17 03:28:36;;;;;;;14.05;5.02;;;;;;;;;;354169;149;866045;-55
2021/12/17 03:29:37;;;;;;;8.81;3.38;;;;;;;;;;356203;150;865031;-55
2021/12/17 03:30:39;;;;;;;7.76;3.21;;;;;;;;;;353430;147;858230;-55
2021/12/17 03:31:41;;;;;;;13.84;4.94;;;;;;;;;;354319;147;867110;-55
2021/12/17 03:32:42;;;;;;;9.80;3.16;;;;;;;;;;353317;150;859916;-55
2021/12/17 03:33:44;;;;;;;5.19;2.60;;;;;;;;;;354129;147;858214;-57
2021/12/17 03:34:46;;;;;;;8.62;3.05;;;;;;;;;;354564;149;857183;-55
2021/12/17 03:35:48;;;;;;;6.81;2.80;;;;;;;;;;354308;150;857134;-55
2021/12/17 03:36:54;;;;;;;6.78;2.69;;;;;;;;;;355467;150;857301;-55
2021/12/17 03:37:55;;;;;;;6.97;3.01;;;;;;;;;;354024;147;857228;-57
2021/12/17 03:38:57;;;;;;;14.01;4.91;;;;;;;;;;352621;150;856335;-55
2021/12/17 03:39:58;;;;;;;10.00;3.83;;;;;;;;;;354408;150;865318;-55
2021/12/17 03:41:50;;;;;;;6.51;3.21;;;;;;;;;;354123;147;857213;-55
2021/12/17 03:42:07;;;;;;;3.63;2.03;;;;;;;;;;350389;150;864916;-56
2021/12/17 03:43:14;;;;;;;8.33;2.53;;;;;;;;;;354975;150;857268;-55
2021/12/17 03:44:16;;;;;;;6.74;3.54;;;;;;;;;;355385;147;865245;-55
2021/12/17 03:45:18;;;;;;;8.24;3.44;;;;;;;;;;353524;149;857190;-55
2021/12/17 03:46:20;;;;;;;11.85;4.51;;;;;;;;;;344332;155;864829;-55
2021/12/17 03:47:21;;;;;;;5.69;2.50;;;;;;;;;;344686;151;857313;-55
2021/12/17 03:48:23;;;;;;;10.25;3.70;;;;;;;;;;342378;151;864791;-54
2021/12/17 03:49:24;;;;;;;5.41;2.59;;;;;;;;;;343134;153;859152;-55
2021/12/17 03:50:27;;;;;;;5.65;2.61;;;;;;;;;;342482;153;865862;-55
2021/12/17 03:51:28;;;;;;;10.71;5.14;;;;;;;;;;345417;153;859087;-55
2021/12/17 03:52:30;;;;;;;7.57;3.47;;;;;;;;;;346461;152;865736;-55
2021/12/17 03:53:31;;;;;;;5.82;2.32;;;;;;;;;;345601;153;858183;-55
2021/12/17 03:54:33;;;;;;;8.97;2.16;;;;;;;;;;345752;153;866142;-55
2021/12/17 03:55:35;;;;;;;6.80;2.90;;;;;;;;;;345752;150;858578;-55
2021/12/17 03:56:37;;;;;;;7.39;3.03;;;;;;;;;;347478;153;858175;-55
2021/12/17 03:57:38;;;;;;;6.49;2.43;;;;;;;;;;347410;153;866098;-54
2021/12/17 03:58:40;;;;;;;6.06;2.40;;;;;;;;;;346766;150;858999;-55
2021/12/17 03:59:41;;;;;;;6.64;2.00;;;;;;;;;;343214;155;857767;-55
2021/12/17 04:00:43;;;;;;;9.34;3.21;;;;;;;;;;344029;152;865299;-55
2021/12/17 04:01:45;;;;;;;7.11;2.69;;;;;;;;;;347623;150;868375;-55
2021/12/17 04:02:46;;;;;;;5.79;2.47;;;;;;;;;;348176;152;859567;-55
2021/12/17 04:03:48;;;;;;;7.84;3.28;;;;;;;;;;341465;156;864386;-55
2021/12/17 04:04:49;;;;;;;8.58;2.73;;;;;;;;;;346013;153;858621;-55
2021/12/17 04:05:51;;;;;;;11.02;3.09;;;;;;;;;;343476;151;857940;-55
2021/12/17 04:06:53;;;;;;;7.93;2.79;;;;;;;;;;344469;154;857124;-55
2021/12/17 04:07:54;;;;;;;8.40;3.47;;;;;;;;;;346897;153;864779;-55
2021/12/17 04:08:56;;;;;;;6.79;2.38;;;;;;;;;;346396;153;859585;-55
2021/12/17 04:09:57;;;;;;;5.16;2.17;;;;;;;;;;342071;156;858177;-55
2021/12/17 04:11:05;;;;;;;5.84;2.94;;;;;;;;;;345392;155;864897;-55
2021/12/17 04:12:11;;;;;;;4.69;2.43;;;;;;;;;;344535;151;866565;-56
2021/12/17 04:13:26;;;;;;;6.11;2.72;;;;;;;;;;345213;155;857125;-55
2021/12/17 04:14:16;;;;;;;9.82;4.52;;;;;;;;;;342008;153;857677;-56
2021/12/17 04:15:17;;;;;;;5.62;2.84;;;;;;;;;;342584;156;859447;-55
2021/12/17 04:16:24;;;;;;;9.39;4.30;;;;;;;;;;343468;152;864866;-55
2021/12/17 04:17:26;;;;;;;8.18;3.78;;;;;;;;;;339087;156;857204;-55
2021/12/17 04:18:28;;;;;;;6.63;3.71;;;;;;;;;;343848;155;858091;-55
2021/12/17 04:19:29;;;;;;;10.66;4.39;;;;;;;;;;342889;153;859836;-55
2021/12/17 04:20:31;;;;;;;6.40;2.94;;;;;;;;;;343502;154;864863;-55
2021/12/17 04:21:33;;;;;;;7.55;3.10;;;;;;;;;;346978;153;864790;-56
2021/12/17 04:22:35;;;;;;;5.62;2.85;;;;;;;;;;349394;152;857412;-55
2021/12/17 04:23:36;;;;;;;5.59;2.89;;;;;;;;;;346251;152;861153;-54
2021/12/17 04:24:38;;;;;;;10.56;4.78;;;;;;;;;;345851;153;857609;-56
2021/12/17 04:25:39;;;;;;;8.32;4.17;;;;;;;;;;346796;151;865129;-56
2021/12/17 04:26:41;;;;;;;8.89;2.38;;;;;;;;;;352728;151;857508;-56
2021/12/17 04:27:43;;;;;;;6.79;3.40;;;;;;;;;;350918;151;866668;-55
2021/12/17 04:28:47;;;;;;;5.69;2.76;;;;;;;;;;343664;152;859080;-56
2021/12/17 04:29:48;;;;;;;5.83;2.19;;;;;;;;;;350891;151;857501;-56
2021/12/17 04:30:50;;;;;;;8.54;3.94;;;;;;;;;;345961;152;857239;-55
2021/12/17 04:31:54;;;;;;;3.47;2.23;;;;;;;;;;342602;152;864754;-55
2021/12/17 04:32:55;;;;;;;5.66;3.15;;;;;;;;;;346875;153;857213;-55
2021/12/17 04:33:57;;;;;;;7.57;4.11;;;;;;;;;;350769;150;856520;-56
2021/12/17 04:34:58;;;;;;;9.49;4.33;;;;;;;;;;346454;154;856437;-55
2021/12/17 04:36:00;;;;;;;4.51;2.06;;;;;;;;;;349619;153;857450;-55
2021/12/17 04:37:02;;;;;;;5.28;1.96;;;;;;;;;;350181;150;857431;-58
2021/12/17 04:38:06;;;;;;;8.15;3.46;;;;;;;;;;345143;154;857705;-55
2021/12/17 04:39:07;;;;;;;5.63;2.14;;;;;;;;;;351579;151;865294;-55
2021/12/17 04:40:10;;;;;;;4.43;2.24;;;;;;;;;;347386;151;857752;-55
2021/12/17 04:42:34;;;;;;;5.42;2.33;;;;;;;;;;344708;154;865393;-55
2021/12/17 04:43:42;;;;;;;6.23;2.86;;;;;;;;;;342725;152;857209;-55
2021/12/17 04:44:41;;;;;;;4.46;1.77;;;;;;;;;;343678;152;866587;-55
2021/12/17 04:45:51;;;;;;;7.50;2.84;;;;;;;;;;351693;151;857344;-54
2021/12/17 04:46:50;;;;;;;6.62;2.54;;;;;;;;;;347933;152;857768;-55
2021/12/17 04:57:27;;;;;;;3.31;1.83;;;;;;;;;;348665;153;856084;-56
2021/12/17 04:58:21;;;;;;;6.60;2.40;;;;;;;;;;345669;152;863558;-56
2021/12/17 04:59:22;;;;;;;6.85;2.65;;;;;;;;;;344057;154;856448;-56
2021/12/17 05:00:27;;;;;;;5.90;1.90;;;;;;;;;;344756;153;863637;-56
2021/12/17 05:01:28;;;;;;;5.73;2.53;;;;;;;;;;348985;152;863780;-56
2021/12/17 05:02:32;;;;;;;5.45;2.21;;;;;;;;;;345237;153;856009;-57
2021/12/17 05:05:31;;;;;;;5.74;2.22;;;;;;;3.31;79.31;99793.34;374689;141;875382;-57
2021/12/17 05:06:33;;;;;;;3.15;1.49;;;;;;;3.03;80.27;99797.89;368007;144;857217;-58
2021/12/17 05:07:36;;;;;;;3.25;1.73;;;;;;;3.00;80.71;99797.83;366035;144;857234;-57
2021/12/17 05:08:38;;;;;;;7.49;1.89;;;;;;;3.16;80.30;99796.45;367123;144;859138;-59
2021/12/17 05:25:40;;;;;;;6.27;1.21;;;;;;;4.89;74.05;99791.55;370176;142;873928;-56
2021/12/17 05:26:42;;;;;;;2.69;1.44;;;;;;;4.91;73.06;99793.31;363588;146;856426;-56
2021/12/17 05:27:45;;;;;;;2.56;1.22;;;;;;;;;;363837;146;856319;-57
2021/12/17 05:28:48;;;;;;;2.94;1.47;;;;;;;;;;363804;146;863695;-57
2021/12/17 05:29:50;;;;;;;4.03;1.74;;;;;;;;;;362771;147;856076;-57
2021/12/17 05:30:51;;;;;;;2.73;1.19;;;;;;;;;;364373;146;856411;-56
2021/12/17 05:31:53;;;;;;;5.57;1.20;;;;;;;;;;363984;146;856499;-56
2021/12/17 05:32:55;;;;;;;5.06;1.70;;;;;;;;;;363418;146;863553;-57
2021/12/17 05:33:58;;;;;;;4.37;1.33;;;;;;;;;;364879;146;856168;-56
2021/12/17 05:35:00;;;;;;;5.67;1.56;;;;;;;;;;364656;146;856430;-57
2021/12/17 05:36:01;;;;;;;3.83;1.45;;;;;;;;;;362037;147;856711;-59
2021/12/17 05:37:03;;;;;;;4.74;1.41;;;;;;;;;;363718;146;856314;-58
2021/12/17 05:38:05;;;;;;;3.74;1.51;;;;;;;;;;362289;146;863624;-57
2021/12/17 05:39:06;;;;;;;4.74;2.07;;;;;;;;;;362588;147;863542;-58
2021/12/17 05:40:08;;;;;;;2.90;1.35;;;;;;;;;;363639;146;856748;-56
2021/12/17 05:41:10;;;;;;;6.53;1.45;;;;;;;;;;362357;146;864309;-59
2021/12/17 05:42:12;;;;;;;2.73;1.73;;;;;;;;;;364797;146;856004;-57
2021/12/17 05:43:15;;;;;;;6.06;1.45;;;;;;;;;;365314;146;856179;-57
2021/12/17 05:44:18;;;;;;;7.00;1.83;;;;;;;;;;355558;146;863756;-57
2021/12/17 05:45:33;;;;;;;3.15;1.46;;;;;;;;;;357163;149;856197;-56
2021/12/17 05:46:49;;;;;;;2.98;1.46;;;;;;;;;;356044;149;856328;-56
2021/12/17 05:47:42;;;;;;;5.21;1.68;;;;;;;;;;355229;149;856986;-58
2021/12/17 05:48:43;;;;;;;5.58;1.90;;;;;;;;;;357305;148;856703;-58
2021/12/17 05:49:45;;;;;;;4.29;1.71;;;;;;;;;;357259;149;863619;-57
2021/12/17 05:50:47;;;;;;;7.39;1.74;;;;;;;;;;354637;150;857660;-60
2021/12/17 05:51:49;;;;;;;3.57;1.57;;;;;;;;;;355601;148;863625;-62
2021/12/17 05:52:50;;;;;;;6.44;1.62;;;;;;;;;;356041;148;856699;-57
2021/12/17 05:53:52;;;;;;;6.14;1.91;;;;;;;;;;356622;149;856266;-57
2021/12/17 05:54:53;;;;;;;6.87;1.88;;;;;;;;;;356590;150;865604;-57
2021/12/17 05:55:55;;;;;;;5.81;2.11;;;;;;;;;;356695;148;864335;-59
2021/12/17 05:56:56;;;;;;;4.36;1.64;;;;;;;;;;354301;149;863774;-60
2021/12/17 05:57:58;;;;;;;4.46;1.79;;;;;;;;;;357453;150;863679;-59
2021/12/17 05:58:59;;;;;;;4.32;1.91;;;;;;;;;;356513;149;863698;-59
2021/12/17 06:00:01;;;;;;;4.55;1.96;;;;;;;;;;357299;148;858670;-60
2021/12/17 06:01:03;;;;;;;3.94;1.69;;;;;;;;;;356455;149;863691;-59
2021/12/17 06:02:09;;;;;;;5.71;1.99;;;;;;;;;;356578;149;863649;-58
2021/12/17 06:03:08;;;;;;;5.06;1.86;;;;;;;;;;354804;148;856250;-58
2021/12/17 06:04:09;;;;;;;4.04;1.63;;;;;;;;;;355673;150;856000;-59
2021/12/17 06:05:11;;;;;;;4.75;1.69;;;;;;;;;;356414;148;859709;-59
2021/12/17 06:06:15;;;;;;;4.57;1.73;;;;;;;;;;355843;148;856633;-60
2021/12/17 06:07:27;;;;;;;8.62;1.95;;;;;;;;;;354799;148;856110;-59
2021/12/17 06:08:29;;;;;;;5.15;1.23;;;;;;;;;;355087;149;856511;-59
2021/12/17 06:09:31;;;;;;;6.17;1.81;;;;;;;;;;355261;147;856236;-59
2021/12/17 06:10:33;;;;;;;5.58;1.62;;;;;;;;;;355897;148;864241;-60
2021/12/17 06:11:35;;;;;;;6.29;1.90;;;;;;;;;;353948;149;856187;-58
2021/12/17 06:12:36;;;;;;;4.73;1.81;;;;;;;;;;356572;148;856425;-59
2021/12/17 06:13:38;;;;;;;6.53;3.28;;;;;;;;;;355915;148;856320;-59
2021/12/17 06:14:39;;;;;;;6.42;1.65;;;;;;;;;;356648;149;856559;-59
2021/12/17 06:15:41;;;;;;;5.48;1.39;;;;;;;;;;357189;149;856842;-59
2021/12/17 06:16:43;;;;;;;7.61;2.10;;;;;;;;;;357857;149;856241;-59
2021/12/17 06:17:44;;;;;;;3.18;1.59;;;;;;;;;;355015;148;857017;-63
2021/12/17 06:18:46;;;;;;;7.00;1.94;;;;;;;;;;357175;149;864324;-64
2021/12/17 06:19:47;;;;;;;4.79;1.91;;;;;;;;;;358619;149;856547;-63
2021/12/17 06:20:49;;;;;;;3.42;1.75;;;;;;;;;;356259;149;856411;-63
2021/12/17 06:21:51;;;;;;;5.58;1.90;;;;;;;;;;355655;148;864180;-61
2021/12/17 06:22:52;;;;;;;4.74;1.70;;;;;;;;;;360222;148;858663;-61
2021/12/17 06:23:54;;;;;;;4.18;1.53;;;;;;;;;;357475;149;856539;-62
2021/12/17 06:24:56;;;;;;;6.29;1.80;;;;;;;;;;356064;149;856919;-60
2021/12/17 06:25:57;;;;;;;5.19;1.96;;;;;;;;;;356757;149;856200;-61
2021/12/17 06:26:59;;;;;;;4.45;1.66;;;;;;;;;;357168;150;857053;-64
2021/12/17 06:28:00;;;;;;;7.99;1.89;;;;;;;;;;354914;149;863805;-62
2021/12/17 06:29:02;;;;;;;6.58;2.11;;;;;;;;;;355155;148;856143;-62
2021/12/17 06:30:04;;;;;;;5.74;1.91;;;;;;;;;;356496;149;863747;-63
2021/12/17 06:31:06;;;;;;;5.62;2.09;;;;;;;;;;356584;148;863755;-61
2021/12/17 06:32:07;;;;;;;6.51;2.27;;;;;;;;;;354497;148;856571;-62
2021/12/17 06:33:09;;;;;;;4.19;1.82;;;;;;;;;;356063;148;859758;-61
2021/12/17 06:34:11;;;;;;;4.49;1.70;;;;;;;;;;356206;148;863625;-62
2021/12/17 06:35:12;;;;;;;6.34;2.14;;;;;;;;;;356373;148;863677;-62
2021/12/17 06:36:14;;;;;;;6.41;2.31;;;;;;;;;;355503;148;863937;-62
2021/12/17 06:37:16;;;;;;;4.31;2.00;;;;;;;;;;355624;149;856031;-63
2021/12/17 06:38:18;;;;;;;6.83;2.08;;;;;;;;;;355452;150;856324;-62
2021/12/17 06:39:20;;;;;;;5.37;2.01;;;;;;;;;;355555;148;856051;-61
2021/12/17 06:40:22;;;;;;;8.81;2.34;;;;;;;;;;354708;149;855996;-61
2021/12/17 06:41:24;;;;;;;5.77;2.22;;;;;;;;;;356763;148;860855;-62
2021/12/17 06:42:26;;;;;;;4.40;2.24;;;;;;;;;;356314;149;859848;-61
2021/12/17 07:05:59;;;;;;;15.68;8.28;;;;;;;4.85;71.92;99793.23;372377;142;878038;-64
2021/12/17 07:09:57;;;;;;;8.10;6.02;;;;;;;;;;361837;145;856032;-62
2021/12/17 07:10:37;;;;;;;10.51;8.29;;;;;;;;;;360152;146;863873;-65
2021/12/17 07:11:51;;;;;;;6.06;4.33;;;;;;;;;;361093;146;864004;-62
2021/12/17 07:21:00;;;;;;;2.68;1.89;;;;;;;;;;334073;158;856935;-62
2021/12/17 07:21:53;;;;;;;2.90;2.18;;;;;;;;;;347557;146;856427;-63
2021/12/17 07:32:13;;;;;;;6.37;3.38;;;;;;;;;;357729;147;856722;-62
2021/12/17 07:32:35;;;;;;;4.17;2.13;;;;;;;;;;357452;148;856006;-63
2021/12/17 07:33:33;;;;;;;3.43;1.61;;;;;;;;;;356349;148;857561;-63
2021/12/17 07:34:43;;;;;;;4.04;2.75;;;;;;;;;;355518;148;856142;-62
2021/12/17 07:35:40;;;;;;;3.86;2.30;;;;;;;;;;357051;149;856005;-61
2021/12/17 07:36:40;;;;;;;3.87;1.86;;;;;;;;;;355103;148;856564;-64
2021/12/17 07:38:46;;;;;;;5.52;3.41;;;;;;;;;;356609;147;857236;-61
2021/12/17 07:39:43;;;;;;;4.22;2.67;;;;;;;;;;356533;149;856822;-60
2021/12/17 07:40:44;;;;;;;3.23;2.49;;;;;;;;;;358433;147;864498;-61
2021/12/17 07:41:46;;;;;;;3.97;2.54;;;;;;;;;;360130;147;856759;-61
2021/12/17 07:42:47;;;;;;;6.04;3.60;;;;;;;;;;358849;148;856498;-65
2021/12/17 07:43:53;;;;;;;5.11;3.84;;;;;;;;;;357380;148;856559;-61
2021/12/17 07:44:55;;;;;;;9.37;4.87;;;;;;;;;;358502;147;856755;-61
2021/12/17 07:45:57;;;;;;;6.37;2.80;;;;;;;;;;356121;148;856227;-61
2021/12/17 07:46:58;;;;;;;4.86;3.73;;;;;;;;;;354974;148;863720;-62
2021/12/17 07:48:00;;;;;;;6.54;4.14;;;;;;;;;;358051;147;863717;-62
2021/12/17 07:49:01;;;;;;;5.08;3.11;;;;;;;;;;357442;147;856198;-65
2021/12/17 07:50:03;;;;;;;4.22;2.60;;;;;;;;;;359659;147;863853;-64
2021/12/17 07:51:06;;;;;;;4.30;2.61;;;;;;;;;;359915;148;856355;-63
2021/12/17 07:52:07;;;;;;;4.06;2.25;;;;;;;;;;357156;147;856065;-64
2021/12/17 07:53:09;;;;;;;3.64;2.04;;;;;;;;;;360807;148;856661;-65
2021/12/17 07:54:10;;;;;;;3.42;2.06;;;;;;;;;;357901;150;863657;-62
2021/12/17 07:55:12;;;;;;;3.09;2.24;;;;;;;;;;357349;147;863420;-64
2021/12/17 07:56:16;;;;;;;4.52;2.84;;;;;;;;;;361637;147;863607;-65
2021/12/17 07:57:18;;;;;;;3.33;2.01;;;;;;;;;;357747;148;855976;-63
2021/12/17 07:58:20;;;;;;;5.31;2.44;;;;;;;;;;357271;147;856091;-63
2021/12/17 07:59:22;;;;;;;3.23;1.92;;;;;;;;;;357763;147;856427;-62
2021/12/17 08:00:24;;;;;;;3.52;1.91;;;;;;;;;;356828;148;856133;-63
2021/12/17 08:01:25;;;;;;;4.64;2.25;;;;;;;;;;356824;150;856070;-62
2021/12/17 08:02:27;;;;;;;3.02;1.71;;;;;;;;;;356742;147;863649;-63
2021/12/17 08:16:01;;;;;;;4.74;1.58;;;;;;;3.80;77.35;99792.50;372149;142;880674;-60
2021/12/17 08:17:02;;;;;;;3.01;1.38;;;;;;;3.71;77.19;99792.34;360712;145;857113;-61
2021/12/17 08:28:08;;;;;;;4.63;1.32;;;;;;;3.86;76.38;99791.76;356240;146;856180;-65
2021/12/17 08:31:15;;;;;;;3.89;1.14;;;;;;;4.10;76.53;99791.28;361179;147;864293;-65
2021/12/17 08:32:17;;;;;;;2.05;1.11;;;;;;;3.99;75.26;99790.25;360045;146;856771;-65
2021/12/17 08:33:21;;;;;;;3.97;1.37;;;;;;;3.88;75.75;99790.93;361234;147;864429;-64
2021/12/17 08:34:22;;;;;;;2.06;1.00;;;;;;;4.04;76.27;99789.50;363709;147;863284;-64
2021/12/17 08:35:24;;;;;;;3.15;1.27;;;;;;;4.27;76.46;99791.55;361772;147;864162;-64
2021/12/17 08:36:28;;;;;;;1.81;1.05;;;;;;;4.44;76.04;99791.81;360977;146;863795;-63
2021/12/17 08:37:31;;;;;;;3.40;1.17;;;;;;;4.61;74.56;99794.60;362166;147;865206;-64
2021/12/17 08:38:32;;;;;;;2.65;1.02;;;;;;;4.63;73.41;99789.52;361648;146;856703;-64
2021/12/17 08:39:34;;;;;;;2.24;1.11;;;;;;;;;;362159;146;856392;-64
2021/12/17 08:40:35;;;;;;;3.98;1.46;;;;;;;;;;363916;147;863984;-65
2021/12/17 08:41:42;;;;;;;3.76;1.57;;;;;;;;;;360788;147;856306;-64
2021/12/17 08:42:41;;;;;;;3.52;1.25;;;;;;;;;;362235;147;856416;-64
2021/12/17 08:43:43;;;;;;;4.32;1.47;;;;;;;;;;362021;146;856196;-64
2021/12/17 08:44:44;;;;;;;4.49;1.89;;;;;;;;;;362206;147;863854;-64
2021/12/17 08:45:46;;;;;;;3.49;1.74;;;;;;;;;;362500;147;859565;-64
2021/12/17 08:46:47;;;;;;;4.66;1.85;;;;;;;;;;362563;146;864083;-63
2021/12/17 08:47:49;;;;;;;6.03;1.62;;;;;;;;;;362207;146;863530;-65
2021/12/17 08:48:52;;;;;;;2.93;1.38;;;;;;;;;;363683;147;856070;-64
2021/12/17 08:49:54;;;;;;;2.49;1.64;;;;;;;;;;362770;146;857186;-65
2021/12/17 08:50:55;;;;;;;3.69;1.63;;;;;;;;;;363167;146;856049;-65
2021/12/17 08:51:58;;;;;;;5.47;1.76;;;;;;;;;;362971;147;856408;-64
2021/12/17 08:52:59;;;;;;;3.42;1.59;;;;;;;;;;362704;147;864558;-64
2021/12/17 08:54:01;;;;;;;3.12;1.42;;;;;;;;;;363134;146;856762;-64
2021/12/17 08:55:03;;;;;;;4.24;1.96;;;;;;;;;;363168;147;864174;-64
2021/12/17 08:56:05;;;;;;;6.01;2.43;;;;;;;;;;362567;147;864407;-64
2021/12/17 08:57:06;;;;;;;4.28;1.98;;;;;;;;;;362415;146;856392;-64
2021/12/17 08:58:12;;;;;;;6.13;1.98;;;;;;;;;;362011;146;856404;-64
2021/12/17 08:59:14;;;;;;;3.88;1.59;;;;;;;;;;361918;147;863580;-65
2021/12/17 09:00:15;;;;;;;4.82;1.66;;;;;;;;;;362302;147;856207;-64
2021/12/17 09:01:17;;;;;;;2.95;1.68;;;;;;;;;;362326;146;856078;-65
2021/12/17 09:02:19;;;;;;;4.85;2.16;;;;;;;;;;362822;147;856129;-65
2021/12/17 09:03:21;;;;;;;4.16;1.80;;;;;;;;;;362339;147;857152;-64